createdAt,value
2019-03-23T00:00:53.882Z,44.20
2019-03-23T00:01:53.871Z,44.60
2019-03-23T00:02:53.856Z,44.50
2019-03-23T00:03:53.858Z,44.50
2019-03-23T00:04:53.832Z,44.20
2019-03-23T00:05:53.825Z,44.70
2019-03-23T00:06:53.813Z,45.20
2019-03-23T00:07:53.796Z,43.20
2019-03-23T00:08:53.813Z,44.80
2019-03-23T00:09:53.775Z,44.60
2019-03-23T00:10:53.773Z,43.60
2019-03-23T00:11:53.767Z,44.70
2019-03-23T00:12:53.738Z,44.80
2019-03-23T00:13:53.751Z,44.60
2019-03-23T00:14:53.727Z,44.40
2019-03-23T00:15:53.722Z,44.00
2019-03-23T00:16:53.705Z,44.70
2019-03-23T00:17:53.680Z,44.40
2019-03-23T00:18:53.694Z,46.20
2019-03-23T00:19:53.664Z,45.70
2019-03-23T00:20:53.661Z,44.10
2019-03-23T00:21:53.655Z,44.80
2019-03-23T00:22:53.632Z,45.00
2019-03-23T00:23:53.651Z,45.70
2019-03-23T00:24:53.613Z,43.60
2019-03-23T00:25:53.600Z,44.00
2019-03-23T00:26:53.591Z,44.80
2019-03-23T00:27:53.579Z,44.80
2019-03-23T00:28:53.575Z,45.20
2019-03-23T00:29:53.558Z,45.50
2019-03-23T00:30:53.547Z,46.60
2019-03-23T00:31:53.528Z,45.60
2019-03-23T00:32:53.527Z,46.10
2019-03-23T00:33:53.529Z,45.90
2019-03-23T00:34:53.503Z,45.20
2019-03-23T00:35:53.485Z,44.30
2019-03-23T00:36:53.491Z,46.40
2019-03-23T00:37:53.479Z,44.20
2019-03-23T00:38:53.478Z,44.70
2019-03-23T00:39:53.464Z,44.90
2019-03-23T00:40:53.449Z,45.50
2019-03-23T00:41:53.422Z,46.20
2019-03-23T00:42:53.417Z,46.50
2019-03-23T00:43:53.405Z,45.60
2019-03-23T00:44:53.414Z,44.10
2019-03-23T00:45:53.415Z,45.30
2019-03-23T00:46:53.366Z,45.40
2019-03-23T00:47:53.349Z,44.60
2019-03-23T00:48:53.339Z,46.70
2019-03-23T00:49:53.348Z,44.20
2019-03-23T00:50:53.318Z,45.70
2019-03-23T00:51:53.304Z,46.50
2019-03-23T00:52:53.299Z,46.30
2019-03-23T00:53:53.285Z,46.20
2019-03-23T00:54:53.289Z,45.50
2019-03-23T00:55:53.263Z,45.90
2019-03-23T00:56:53.271Z,45.40
2019-03-23T00:57:53.242Z,46.30
2019-03-23T00:58:53.237Z,47.70
2019-03-23T00:59:53.236Z,44.90
2019-03-23T01:00:53.211Z,44.50
2019-03-23T01:01:53.197Z,46.00
2019-03-23T01:02:53.184Z,46.10
2019-03-23T01:03:53.170Z,46.50
2019-03-23T01:04:53.171Z,45.20
2019-03-23T01:05:53.157Z,46.10
2019-03-23T01:06:53.138Z,46.70
2019-03-23T01:07:53.134Z,46.10
2019-03-23T01:08:53.115Z,46.10
2019-03-23T01:09:53.148Z,45.70
2019-03-23T01:10:53.119Z,45.80
2019-03-23T01:11:53.093Z,45.50
2019-03-23T01:12:53.076Z,44.90
2019-03-23T01:13:53.063Z,46.50
2019-03-23T01:14:53.084Z,43.90
2019-03-23T01:15:53.065Z,46.80
2019-03-23T01:16:53.036Z,48.00
2019-03-23T01:17:53.050Z,48.10
2019-03-23T01:18:53.013Z,46.30
2019-03-23T01:19:53.023Z,46.20
2019-03-23T01:20:52.981Z,46.00
2019-03-23T01:21:52.986Z,46.90
2019-03-23T01:22:52.969Z,46.10
2019-03-23T01:23:52.960Z,45.40
2019-03-23T01:24:52.969Z,46.20
2019-03-23T01:25:52.934Z,47.70
2019-03-23T01:26:52.935Z,47.00
2019-03-23T01:27:52.907Z,46.80
2019-03-23T01:28:52.910Z,47.00
2019-03-23T01:29:52.896Z,45.40
2019-03-23T01:30:52.906Z,46.20
2019-03-23T01:31:52.874Z,48.30
2019-03-23T01:32:52.848Z,47.30
2019-03-23T01:33:52.847Z,46.70
2019-03-23T01:34:52.857Z,47.30
2019-03-23T01:35:52.827Z,47.30
2019-03-23T01:37:02.434Z,46.90
2019-03-23T01:37:53.807Z,46.20
2019-03-23T01:38:52.799Z,49.40
2019-03-23T01:39:52.796Z,48.50
2019-03-23T01:40:52.767Z,47.70
2019-03-23T01:41:52.754Z,47.60
2019-03-23T01:42:52.751Z,46.70
2019-03-23T01:43:52.747Z,48.50
2019-03-23T01:44:52.730Z,47.80
2019-03-23T01:45:52.717Z,46.80
2019-03-23T01:46:52.706Z,46.70
2019-03-23T01:47:52.690Z,47.20
2019-03-23T01:48:52.695Z,48.00
2019-03-23T01:49:52.676Z,46.70
2019-03-23T01:50:52.652Z,47.20
2019-03-23T01:51:52.658Z,45.90
2019-03-23T01:52:52.648Z,46.50
2019-03-23T01:53:52.634Z,45.30
2019-03-23T01:54:52.637Z,46.90
2019-03-23T01:55:52.592Z,44.70
2019-03-23T01:56:52.589Z,46.30
2019-03-23T01:57:52.595Z,48.70
2019-03-23T01:58:52.615Z,47.70
2019-03-23T01:59:52.552Z,47.70
2019-03-23T02:00:52.566Z,47.60
2019-03-23T02:01:52.540Z,46.70
2019-03-23T02:02:52.529Z,46.50
2019-03-23T02:03:52.517Z,48.00
2019-03-23T02:04:52.499Z,46.40
2019-03-23T02:05:52.497Z,46.50
2019-03-23T02:06:52.489Z,47.10
2019-03-23T02:07:52.475Z,46.40
2019-03-23T02:08:52.454Z,44.80
2019-03-23T02:09:52.455Z,46.90
2019-03-23T02:10:52.525Z,45.00
2019-03-23T02:11:52.437Z,44.30
2019-03-23T02:12:52.421Z,47.30
2019-03-23T02:13:52.442Z,46.20
2019-03-23T02:14:52.396Z,46.00
2019-03-23T02:15:52.395Z,45.80
2019-03-23T02:16:52.364Z,47.30
2019-03-23T02:17:52.358Z,45.80
2019-03-23T02:18:52.344Z,44.20
2019-03-23T02:19:52.347Z,45.90
2019-03-23T02:20:52.336Z,45.60
2019-03-23T02:21:52.317Z,46.50
2019-03-23T02:22:52.311Z,48.70
2019-03-23T02:23:52.290Z,45.20
2019-03-23T02:24:52.289Z,46.50
2019-03-23T02:25:52.297Z,45.70
2019-03-23T02:26:52.264Z,46.10
2019-03-23T02:27:52.266Z,45.90
2019-03-23T02:28:52.238Z,45.30
2019-03-23T02:29:52.235Z,47.00
2019-03-23T02:30:52.263Z,46.50
2019-03-23T02:31:52.208Z,45.60
2019-03-23T02:32:52.186Z,46.70
2019-03-23T02:33:52.191Z,43.70
2019-03-23T02:34:52.167Z,45.30
2019-03-23T02:35:52.175Z,44.60
2019-03-23T02:36:52.150Z,46.40
2019-03-23T02:37:52.155Z,44.80
2019-03-23T02:38:52.126Z,47.70
2019-03-23T02:39:52.131Z,45.00
2019-03-23T02:40:52.141Z,45.80
2019-03-23T02:41:52.093Z,46.80
2019-03-23T02:42:52.086Z,48.10
2019-03-23T02:43:52.078Z,44.30
2019-03-23T02:44:52.070Z,44.90
2019-03-23T02:45:52.077Z,46.10
2019-03-23T02:46:52.046Z,44.20
2019-03-23T02:47:52.030Z,45.40
2019-03-23T02:48:52.016Z,46.50
2019-03-23T02:49:52.009Z,45.70
2019-03-23T02:50:52.014Z,47.10
2019-03-23T02:51:51.985Z,46.10
2019-03-23T02:52:51.982Z,46.40
2019-03-23T02:53:51.964Z,45.90
2019-03-23T02:54:51.948Z,45.80
2019-03-23T02:55:51.976Z,45.60
2019-03-23T02:56:51.929Z,45.30
2019-03-23T02:57:51.913Z,43.80
2019-03-23T02:58:51.918Z,45.30
2019-03-23T02:59:51.894Z,45.10
2019-03-23T03:00:51.905Z,46.00
2019-03-23T03:01:51.866Z,46.40
2019-03-23T03:02:51.879Z,46.70
2019-03-23T03:03:51.854Z,48.60
2019-03-23T03:04:51.841Z,47.00
2019-03-23T03:05:51.843Z,46.60
2019-03-23T03:06:51.833Z,46.90
2019-03-23T03:07:51.817Z,46.40
2019-03-23T03:08:51.793Z,46.70
2019-03-23T03:09:51.795Z,46.60
2019-03-23T03:10:51.779Z,48.80
2019-03-23T03:11:51.794Z,46.50
2019-03-23T03:12:51.751Z,45.80
2019-03-23T03:13:51.740Z,46.20
2019-03-23T03:14:51.735Z,46.70
2019-03-23T03:15:51.722Z,46.70
2019-03-23T03:16:51.728Z,45.00
2019-03-23T03:17:51.698Z,46.50
2019-03-23T03:18:51.683Z,44.40
2019-03-23T03:19:51.675Z,45.30
2019-03-23T03:20:51.658Z,45.80
2019-03-23T03:21:51.670Z,46.50
2019-03-23T03:22:51.651Z,46.40
2019-03-23T03:23:51.631Z,45.40
2019-03-23T03:24:51.617Z,44.30
2019-03-23T03:25:51.606Z,43.30
2019-03-23T03:26:51.610Z,45.80
2019-03-23T03:27:51.587Z,44.70
2019-03-23T03:28:51.572Z,44.60
2019-03-23T03:29:51.564Z,45.50
2019-03-23T03:30:51.553Z,45.00
2019-03-23T03:31:51.557Z,45.60
2019-03-23T03:32:51.538Z,44.90
2019-03-23T03:33:51.529Z,42.50
2019-03-23T03:34:51.503Z,43.60
2019-03-23T03:35:51.495Z,44.20
2019-03-23T03:36:51.512Z,44.30
2019-03-23T03:37:56.928Z,43.10
2019-03-23T03:38:52.459Z,42.70
2019-03-23T03:39:51.470Z,45.30
2019-03-23T03:40:51.436Z,43.20
2019-03-23T03:41:51.434Z,42.10
2019-03-23T03:42:51.446Z,42.50
2019-03-23T03:43:51.407Z,43.20
2019-03-23T03:44:51.397Z,41.30
2019-03-23T03:45:51.392Z,41.10
2019-03-23T03:46:51.368Z,41.40
2019-03-23T03:47:51.391Z,41.60
2019-03-23T03:48:51.348Z,41.60
2019-03-23T03:49:51.361Z,41.40
2019-03-23T03:50:51.332Z,42.30
2019-03-23T03:51:51.324Z,41.70
2019-03-23T03:52:51.380Z,41.60
2019-03-23T03:53:51.291Z,41.60
2019-03-23T03:54:51.297Z,42.40
2019-03-23T03:55:51.268Z,42.20
2019-03-23T03:56:51.267Z,41.40
2019-03-23T03:57:51.269Z,41.90
2019-03-23T03:58:51.251Z,42.40
2019-03-23T03:59:51.235Z,42.40
2019-03-23T04:00:51.222Z,43.30
2019-03-23T04:01:51.217Z,42.80
2019-03-23T04:02:51.205Z,42.70
2019-03-23T04:03:51.186Z,42.60
2019-03-23T04:04:51.179Z,42.10
2019-03-23T04:05:51.173Z,41.00
2019-03-23T04:06:51.167Z,40.10
2019-03-23T04:07:51.172Z,41.20
2019-03-23T04:08:51.145Z,41.60
2019-03-23T04:09:51.126Z,40.90
2019-03-23T04:10:51.101Z,41.10
2019-03-23T04:11:51.090Z,40.30
2019-03-23T04:12:51.109Z,40.60
2019-03-23T04:13:51.072Z,41.20
2019-03-23T04:14:51.069Z,41.00
2019-03-23T04:15:51.056Z,41.20
2019-03-23T04:16:51.046Z,40.80
2019-03-23T04:17:51.044Z,42.90
2019-03-23T04:18:51.026Z,41.70
2019-03-23T04:19:51.007Z,41.90
2019-03-23T04:20:50.993Z,40.90
2019-03-23T04:21:50.998Z,40.30
2019-03-23T04:22:50.983Z,41.40
2019-03-23T04:23:50.978Z,40.20
2019-03-23T04:24:50.950Z,40.40
2019-03-23T04:25:50.944Z,40.40
2019-03-23T04:26:50.926Z,40.50
2019-03-23T04:27:50.922Z,42.30
2019-03-23T04:28:50.917Z,42.30
2019-03-23T04:29:50.915Z,41.10
2019-03-23T04:30:50.893Z,41.30
2019-03-23T04:31:50.883Z,42.20
2019-03-23T04:32:50.862Z,40.20
2019-03-23T04:33:50.873Z,41.40
2019-03-23T04:34:50.847Z,39.90
2019-03-23T04:35:50.830Z,39.90
2019-03-23T04:36:50.823Z,39.90
2019-03-23T04:37:50.817Z,41.20
2019-03-23T04:38:50.813Z,42.60
2019-03-23T04:39:50.790Z,41.80
2019-03-23T04:40:50.787Z,41.80
2019-03-23T04:41:50.761Z,43.00
2019-03-23T04:42:50.752Z,41.50
2019-03-23T04:43:50.759Z,43.00
2019-03-23T04:44:50.743Z,42.80
2019-03-23T04:45:50.723Z,41.20
2019-03-23T04:46:50.708Z,43.70
2019-03-23T04:47:50.697Z,43.30
2019-03-23T04:48:50.696Z,42.20
2019-03-23T04:49:50.685Z,41.10
2019-03-23T04:50:50.659Z,39.70
2019-03-23T04:51:50.667Z,41.70
2019-03-23T04:52:50.639Z,40.10
2019-03-23T04:53:50.645Z,40.20
2019-03-23T04:54:50.627Z,40.80
2019-03-23T04:55:50.628Z,42.40
2019-03-23T04:56:50.595Z,40.20
2019-03-23T04:57:50.625Z,40.70
2019-03-23T04:58:50.591Z,40.30
2019-03-23T04:59:50.574Z,40.60
2019-03-23T05:00:50.557Z,39.90
2019-03-23T05:01:50.535Z,39.70
2019-03-23T05:02:50.541Z,41.50
2019-03-23T05:03:50.547Z,41.20
2019-03-23T05:04:50.507Z,40.80
2019-03-23T05:05:50.491Z,40.60
2019-03-23T05:06:50.497Z,41.70
2019-03-23T05:07:50.483Z,39.20
2019-03-23T05:08:50.478Z,40.70
2019-03-23T05:09:50.454Z,39.20
2019-03-23T05:10:50.438Z,42.00
2019-03-23T05:11:50.434Z,40.30
2019-03-23T05:12:50.434Z,40.40
2019-03-23T05:13:50.430Z,41.50
2019-03-23T05:14:50.395Z,41.80
2019-03-23T05:15:50.397Z,41.40
2019-03-23T05:16:50.372Z,41.10
2019-03-23T05:17:50.374Z,38.80
2019-03-23T05:18:50.385Z,41.40
2019-03-23T05:19:50.374Z,41.60
2019-03-23T05:20:50.340Z,40.50
2019-03-23T05:21:50.342Z,39.80
2019-03-23T05:22:50.315Z,40.30
2019-03-23T05:23:50.332Z,39.90
2019-03-23T05:24:50.300Z,38.00
2019-03-23T05:25:50.288Z,40.60
2019-03-23T05:26:50.268Z,41.50
2019-03-23T05:27:50.252Z,40.80
2019-03-23T05:28:50.275Z,40.80
2019-03-23T05:29:50.260Z,40.30
2019-03-23T05:30:50.230Z,40.30
2019-03-23T05:31:50.225Z,41.00
2019-03-23T05:32:50.204Z,42.00
2019-03-23T05:33:50.212Z,41.40
2019-03-23T05:34:50.178Z,40.70
2019-03-23T05:35:50.173Z,41.20
2019-03-23T05:36:50.158Z,41.50
2019-03-23T05:37:50.155Z,41.90
2019-03-23T05:38:50.146Z,39.80
2019-03-23T05:39:50.134Z,40.50
2019-03-23T05:40:50.110Z,41.20
2019-03-23T05:41:50.109Z,41.60
2019-03-23T05:42:50.082Z,41.60
2019-03-23T05:43:50.102Z,42.00
2019-03-23T05:44:50.068Z,41.80
2019-03-23T05:45:50.060Z,40.90
2019-03-23T05:46:50.041Z,40.10
2019-03-23T05:47:50.046Z,40.30
2019-03-23T05:48:50.034Z,40.70
2019-03-23T05:49:50.004Z,40.50
2019-03-23T05:50:50.011Z,41.80
2019-03-23T05:51:49.997Z,40.90
2019-03-23T05:52:49.975Z,41.70
2019-03-23T05:53:50.000Z,41.80
2019-03-23T05:54:49.957Z,42.50
2019-03-23T05:55:49.945Z,40.20
2019-03-23T05:56:49.935Z,41.30
2019-03-23T05:57:49.929Z,41.60
2019-03-23T05:58:49.926Z,40.40
2019-03-23T05:59:49.922Z,40.20
2019-03-23T06:00:49.893Z,41.00
2019-03-23T06:01:49.884Z,38.70
2019-03-23T06:02:49.873Z,40.00
2019-03-23T06:03:49.869Z,40.50
2019-03-23T06:04:49.869Z,38.70
2019-03-23T06:05:49.838Z,39.90
2019-03-23T06:06:49.851Z,39.20
2019-03-23T06:07:49.817Z,39.50
2019-03-23T06:08:55.028Z,40.50
2019-03-23T06:09:50.805Z,38.90
2019-03-23T06:10:49.775Z,40.00
2019-03-23T06:11:49.777Z,37.90
2019-03-23T06:12:49.756Z,40.30
2019-03-23T06:13:49.743Z,39.70
2019-03-23T06:14:49.762Z,38.80
2019-03-23T06:15:49.755Z,40.40
2019-03-23T06:16:49.718Z,40.10
2019-03-23T06:17:49.699Z,39.40
2019-03-23T06:18:49.702Z,40.10
2019-03-23T06:19:49.691Z,38.90
2019-03-23T06:20:49.672Z,37.50
2019-03-23T06:21:49.662Z,37.30
2019-03-23T06:22:49.654Z,39.00
2019-03-23T06:23:49.640Z,39.70
2019-03-23T06:24:49.646Z,39.80
2019-03-23T06:25:49.617Z,39.30
2019-03-23T06:26:49.613Z,39.20
2019-03-23T06:27:49.594Z,40.40
2019-03-23T06:28:49.587Z,40.60
2019-03-23T06:29:49.596Z,41.90
2019-03-23T06:30:49.576Z,41.40
2019-03-23T06:31:49.539Z,42.70
2019-03-23T06:32:49.539Z,43.90
2019-03-23T06:33:49.526Z,42.80
2019-03-23T06:34:49.535Z,43.60
2019-03-23T06:35:49.501Z,43.80
2019-03-23T06:36:49.490Z,43.30
2019-03-23T06:37:49.482Z,40.60
2019-03-23T06:38:49.479Z,41.80
2019-03-23T06:39:49.487Z,40.40
2019-03-23T06:40:49.448Z,40.20
2019-03-23T06:41:49.437Z,41.70
2019-03-23T06:42:59.117Z,41.00
2019-03-23T06:43:50.415Z,42.50
2019-03-23T06:44:49.411Z,40.60
2019-03-23T06:45:49.412Z,41.00
2019-03-23T06:46:49.379Z,39.80
2019-03-23T06:47:49.364Z,40.70
2019-03-23T06:48:49.363Z,41.10
2019-03-23T06:49:49.386Z,40.60
2019-03-23T06:50:49.353Z,40.80
2019-03-23T06:51:49.328Z,41.70
2019-03-23T06:52:49.323Z,40.60
2019-03-23T06:53:49.310Z,42.20
2019-03-23T06:54:49.302Z,42.90
2019-03-23T06:55:49.310Z,40.70
2019-03-23T06:56:49.291Z,40.60
2019-03-23T06:57:49.264Z,39.90
2019-03-23T06:58:49.245Z,40.10
2019-03-23T06:59:49.236Z,38.80
2019-03-23T07:00:49.251Z,40.00
2019-03-23T07:01:49.217Z,39.60
2019-03-23T07:02:49.206Z,40.20
2019-03-23T07:03:49.191Z,39.10
2019-03-23T07:04:49.177Z,40.30
2019-03-23T07:05:49.207Z,40.30
2019-03-23T07:06:49.162Z,39.40
2019-03-23T07:07:49.172Z,40.90
2019-03-23T07:08:49.131Z,40.80
2019-03-23T07:09:49.127Z,41.40
2019-03-23T07:10:49.141Z,39.00
2019-03-23T07:11:49.110Z,39.60
2019-03-23T07:12:49.089Z,40.10
2019-03-23T07:13:49.086Z,38.90
2019-03-23T07:14:49.065Z,40.90
2019-03-23T07:15:49.079Z,39.70
2019-03-23T07:16:49.049Z,40.50
2019-03-23T07:17:49.097Z,40.40
2019-03-23T07:18:49.031Z,40.30
2019-03-23T07:19:49.019Z,39.60
2019-03-23T07:20:49.128Z,38.90
2019-03-23T07:21:49.003Z,41.10
2019-03-23T07:22:48.985Z,40.00
2019-03-23T07:23:48.974Z,39.40
2019-03-23T07:24:48.955Z,40.60
2019-03-23T07:25:49.004Z,41.50
2019-03-23T07:26:48.953Z,42.10
2019-03-23T07:27:48.925Z,40.40
2019-03-23T07:28:48.929Z,41.30
2019-03-23T07:29:48.921Z,39.90
2019-03-23T07:30:48.891Z,39.40
2019-03-23T07:31:48.898Z,40.40
2019-03-23T07:32:48.886Z,39.30
2019-03-23T07:33:48.861Z,40.20
2019-03-23T07:34:48.848Z,40.20
2019-03-23T07:35:48.846Z,40.50
2019-03-23T07:36:48.851Z,41.20
2019-03-23T07:37:48.817Z,41.40
2019-03-23T07:38:48.837Z,41.00
2019-03-23T07:39:48.802Z,41.20
2019-03-23T07:40:48.779Z,42.20
2019-03-23T07:41:48.793Z,39.80
2019-03-23T07:42:48.780Z,40.40
2019-03-23T07:43:48.749Z,40.90
2019-03-23T07:44:48.747Z,42.10
2019-03-23T07:45:48.725Z,41.90
2019-03-23T07:46:48.767Z,41.40
2019-03-23T07:47:48.706Z,41.50
2019-03-23T07:48:48.703Z,41.10
2019-03-23T07:49:48.688Z,41.80
2019-03-23T07:50:48.681Z,42.80
2019-03-23T07:51:48.688Z,42.60
2019-03-23T07:52:48.670Z,44.00
2019-03-23T07:53:48.648Z,43.60
2019-03-23T07:54:48.650Z,43.30
2019-03-23T07:55:48.616Z,45.40
2019-03-23T07:56:48.629Z,45.30
2019-03-23T07:57:48.595Z,45.30
2019-03-23T07:58:48.592Z,46.40
2019-03-23T07:59:48.580Z,45.70
2019-03-23T08:00:48.585Z,46.90
2019-03-23T08:01:48.590Z,46.90
2019-03-23T08:02:48.530Z,45.90
2019-03-23T08:03:48.536Z,46.90
2019-03-23T08:04:48.542Z,46.90
2019-03-23T08:05:48.507Z,48.90
2019-03-23T08:06:48.529Z,47.40
2019-03-23T08:07:48.492Z,48.00
2019-03-23T08:08:48.484Z,48.60
2019-03-23T08:09:48.461Z,47.30
2019-03-23T08:10:48.452Z,47.30
2019-03-23T08:11:48.455Z,47.60
2019-03-23T08:12:48.428Z,47.20
2019-03-23T08:13:48.424Z,48.40
2019-03-23T08:14:48.401Z,48.10
2019-03-23T08:15:48.394Z,47.70
2019-03-23T08:16:48.412Z,47.10
2019-03-23T08:17:48.381Z,48.10
2019-03-23T08:18:48.379Z,46.40
2019-03-23T08:19:48.373Z,46.80
2019-03-23T08:20:48.348Z,47.40
2019-03-23T08:21:48.352Z,47.30
2019-03-23T08:22:48.324Z,46.00
2019-03-23T08:23:48.323Z,46.80
2019-03-23T08:24:48.290Z,46.10
2019-03-23T08:25:48.283Z,46.30
2019-03-23T08:26:48.322Z,46.40
2019-03-23T08:27:48.272Z,46.60
2019-03-23T08:28:48.281Z,48.10
2019-03-23T08:29:48.232Z,47.70
2019-03-23T08:30:48.231Z,46.20
2019-03-23T08:31:48.284Z,46.40
2019-03-23T08:32:48.222Z,46.70
2019-03-23T08:33:48.199Z,46.20
2019-03-23T08:34:48.269Z,45.60
2019-03-23T08:35:48.190Z,46.40
2019-03-23T08:36:48.171Z,47.40
2019-03-23T08:37:48.148Z,46.20
2019-03-23T08:38:48.177Z,45.60
2019-03-23T08:39:48.863Z,47.20
2019-03-23T08:40:48.115Z,45.90
2019-03-23T08:41:48.149Z,45.60
2019-03-23T08:42:48.107Z,44.30
2019-03-23T08:43:48.088Z,45.50
2019-03-23T08:44:48.068Z,45.50
2019-03-23T08:45:48.082Z,45.90
2019-03-23T08:46:48.045Z,44.50
2019-03-23T08:47:48.074Z,45.30
2019-03-23T08:48:48.055Z,44.20
2019-03-23T08:49:48.030Z,46.60
2019-03-23T08:50:48.066Z,45.60
2019-03-23T08:51:48.015Z,45.10
2019-03-23T08:52:48.003Z,46.00
2019-03-23T08:53:48.005Z,46.10
2019-03-23T08:54:47.960Z,46.00
2019-03-23T08:55:47.971Z,45.20
2019-03-23T08:56:47.958Z,45.50
2019-03-23T08:57:47.967Z,46.00
2019-03-23T08:58:47.909Z,44.00
2019-03-23T08:59:47.909Z,45.10
2019-03-23T09:00:47.898Z,45.00
2019-03-23T09:01:47.888Z,44.70
2019-03-23T09:02:47.904Z,45.20
2019-03-23T09:03:52.349Z,45.20
2019-03-23T09:04:47.863Z,44.60
2019-03-23T09:05:47.842Z,45.10
2019-03-23T09:06:47.839Z,46.00
2019-03-23T09:07:47.853Z,45.70
2019-03-23T09:08:47.811Z,45.40
2019-03-23T09:09:47.802Z,45.80
2019-03-23T09:10:47.784Z,43.50
2019-03-23T09:11:47.771Z,39.50
2019-03-23T09:12:47.800Z,37.30
2019-03-23T09:13:47.757Z,38.90
2019-03-23T09:14:47.748Z,40.40
2019-03-23T09:15:47.730Z,42.50
2019-03-23T09:16:47.707Z,44.50
2019-03-23T09:17:47.736Z,39.80
2019-03-23T09:18:47.698Z,41.60
2019-03-23T09:19:47.699Z,40.70
2019-03-23T09:20:47.680Z,41.40
2019-03-23T09:21:47.669Z,40.40
2019-03-23T09:22:47.685Z,43.00
2019-03-23T09:23:47.647Z,41.10
2019-03-23T09:24:47.636Z,41.20
2019-03-23T09:25:47.626Z,41.90
2019-03-23T09:26:47.607Z,40.60
2019-03-23T09:27:47.616Z,41.30
2019-03-23T09:28:47.620Z,41.80
2019-03-23T09:29:47.587Z,41.50
2019-03-23T09:30:47.613Z,41.20
2019-03-23T09:31:47.542Z,42.40
2019-03-23T09:32:47.553Z,42.50
2019-03-23T09:33:47.522Z,43.10
2019-03-23T09:34:47.517Z,40.10
2019-03-23T09:35:47.506Z,40.70
2019-03-23T09:36:47.508Z,41.10
2019-03-23T09:37:47.507Z,39.80
2019-03-23T09:38:47.502Z,40.50
2019-03-23T09:39:47.462Z,41.40
2019-03-23T09:40:47.470Z,41.20
2019-03-23T09:41:47.447Z,42.50
2019-03-23T09:42:47.449Z,42.40
2019-03-23T09:43:47.417Z,41.30
2019-03-23T09:44:47.416Z,42.00
2019-03-23T09:45:47.409Z,41.00
2019-03-23T09:46:47.441Z,40.70
2019-03-23T09:47:47.395Z,41.20
2019-03-23T09:48:47.358Z,40.80
2019-03-23T09:49:47.354Z,41.30
2019-03-23T09:50:47.334Z,41.20
2019-03-23T09:51:47.337Z,39.80
2019-03-23T09:52:47.360Z,40.50
2019-03-23T09:53:47.313Z,40.30
2019-03-23T09:54:47.300Z,42.40
2019-03-23T09:55:47.291Z,38.90
2019-03-23T09:56:47.277Z,40.30
2019-03-23T09:57:47.284Z,39.50
2019-03-23T09:58:47.259Z,38.50
2019-03-23T09:59:47.243Z,40.90
2019-03-23T10:00:47.222Z,39.40
2019-03-23T10:01:47.236Z,40.70
2019-03-23T10:02:47.231Z,38.50
2019-03-23T10:03:47.205Z,38.40
2019-03-23T10:04:47.207Z,39.20
2019-03-23T10:05:47.178Z,39.10
2019-03-23T10:06:47.164Z,37.40
2019-03-23T10:07:47.162Z,39.00
2019-03-23T10:08:47.159Z,37.80
2019-03-23T10:09:47.137Z,37.80
2019-03-23T10:10:47.123Z,37.70
2019-03-23T10:11:47.102Z,38.00
2019-03-23T10:12:47.128Z,37.60
2019-03-23T10:13:47.089Z,37.20
2019-03-23T10:14:47.071Z,38.30
2019-03-23T10:15:47.091Z,39.50
2019-03-23T10:16:47.062Z,38.20
2019-03-23T10:17:47.053Z,38.10
2019-03-23T10:18:47.033Z,39.30
2019-03-23T10:19:47.045Z,38.40
2019-03-23T10:20:47.015Z,38.60
2019-03-23T10:21:47.002Z,37.70
2019-03-23T10:22:47.035Z,35.40
2019-03-23T10:23:46.983Z,37.40
2019-03-23T10:24:46.977Z,38.20
2019-03-23T10:25:46.959Z,37.90
2019-03-23T10:26:46.949Z,37.80
2019-03-23T10:27:46.950Z,38.00
2019-03-23T10:28:46.908Z,39.80
2019-03-23T10:29:46.911Z,38.30
2019-03-23T10:30:46.951Z,39.30
2019-03-23T10:31:46.893Z,36.30
2019-03-23T10:32:46.943Z,38.30
2019-03-23T10:33:46.856Z,37.30
2019-03-23T10:34:46.906Z,38.00
2019-03-23T10:35:46.835Z,34.70
2019-03-23T10:36:46.840Z,37.20
2019-03-23T10:37:46.831Z,36.80
2019-03-23T10:38:46.809Z,37.10
2019-03-23T10:39:46.802Z,35.70
2019-03-23T10:40:46.835Z,37.90
2019-03-23T10:41:46.780Z,35.40
2019-03-23T10:42:46.801Z,36.80
2019-03-23T10:43:46.761Z,36.50
2019-03-23T10:44:46.745Z,37.30
2019-03-23T10:45:46.734Z,38.40
2019-03-23T10:46:46.735Z,38.70
2019-03-23T10:47:46.840Z,38.50
2019-03-23T10:48:46.695Z,37.40
2019-03-23T10:49:46.699Z,36.10
2019-03-23T10:50:46.681Z,38.70
2019-03-23T10:51:46.666Z,37.00
2019-03-23T10:52:46.688Z,36.90
2019-03-23T10:53:46.650Z,38.30
2019-03-23T10:54:46.644Z,37.00
2019-03-23T10:55:46.613Z,37.60
2019-03-23T10:56:46.616Z,37.40
2019-03-23T10:57:46.610Z,36.10
2019-03-23T10:58:46.581Z,37.80
2019-03-23T10:59:46.575Z,37.30
2019-03-23T11:00:46.586Z,39.70
2019-03-23T11:01:46.586Z,39.30
2019-03-23T11:02:46.546Z,40.60
2019-03-23T11:03:46.541Z,38.70
2019-03-23T11:04:46.542Z,39.30
2019-03-23T11:05:46.513Z,39.20
2019-03-23T11:06:46.494Z,38.90
2019-03-23T11:07:46.543Z,40.20
2019-03-23T11:08:46.491Z,40.80
2019-03-23T11:09:46.473Z,40.70
2019-03-23T11:10:46.452Z,40.20
2019-03-23T11:11:46.459Z,40.80
2019-03-23T11:12:46.442Z,41.70
2019-03-23T11:13:46.416Z,41.80
2019-03-23T11:14:46.438Z,46.10
2019-03-23T11:15:46.392Z,42.40
2019-03-23T11:16:46.402Z,42.00
2019-03-23T11:17:46.389Z,43.00
2019-03-23T11:18:46.366Z,41.20
2019-03-23T11:19:46.352Z,42.60
2019-03-23T11:20:46.350Z,41.80
2019-03-23T11:21:46.337Z,40.50
2019-03-23T11:22:46.337Z,38.00
2019-03-23T11:23:46.309Z,42.30
2019-03-23T11:24:46.289Z,42.50
2019-03-23T11:25:46.290Z,42.80
2019-03-23T11:26:46.292Z,45.50
2019-03-23T11:27:46.288Z,46.70
2019-03-23T11:28:46.266Z,44.40
2019-03-23T11:29:46.267Z,49.00
2019-03-23T11:30:46.227Z,48.80
2019-03-23T11:31:46.224Z,48.80
2019-03-23T11:32:46.238Z,47.20
2019-03-23T11:33:46.242Z,46.00
2019-03-23T11:34:46.182Z,45.70
2019-03-23T11:35:46.181Z,44.70
2019-03-23T11:36:46.155Z,44.40
2019-03-23T11:37:46.370Z,44.10
2019-03-23T11:38:46.152Z,41.90
2019-03-23T11:39:46.140Z,42.60
2019-03-23T11:40:53.897Z,40.50
2019-03-23T11:41:47.111Z,39.80
2019-03-23T11:42:50.124Z,41.70
2019-03-23T11:43:46.100Z,42.10
2019-03-23T11:44:46.109Z,42.50
2019-03-23T11:45:46.057Z,43.40
2019-03-23T11:46:46.047Z,44.40
2019-03-23T11:47:46.101Z,45.20
2019-03-23T11:48:46.031Z,47.00
2019-03-23T11:49:46.025Z,48.40
2019-03-23T11:50:46.030Z,47.50
2019-03-23T11:51:46.023Z,45.40
2019-03-23T11:52:47.074Z,48.40
2019-03-23T11:53:45.980Z,50.50
2019-03-23T11:54:45.970Z,49.50
2019-03-23T11:55:45.953Z,50.70
2019-03-23T11:56:45.943Z,50.10
2019-03-23T11:57:45.973Z,50.20
2019-03-23T11:58:45.914Z,51.00
2019-03-23T11:59:45.912Z,48.40
2019-03-23T12:00:45.903Z,50.10
2019-03-23T12:01:51.776Z,52.40
2019-03-23T12:02:46.887Z,52.00
2019-03-23T12:03:45.887Z,49.20
2019-03-23T12:04:45.848Z,49.50
2019-03-23T12:05:45.842Z,51.50
2019-03-23T12:06:45.839Z,51.20
2019-03-23T12:07:45.844Z,50.70
2019-03-23T12:08:45.803Z,48.90
2019-03-23T12:09:45.791Z,48.60
2019-03-23T12:10:45.786Z,49.70
2019-03-23T12:11:45.784Z,47.70
2019-03-23T12:12:45.784Z,48.60
2019-03-23T12:13:45.759Z,46.70
2019-03-23T12:14:45.746Z,45.90
2019-03-23T12:15:45.721Z,43.90
2019-03-23T12:16:45.716Z,46.20
2019-03-23T12:17:45.752Z,43.80
2019-03-23T12:18:45.697Z,44.00
2019-03-23T12:19:45.707Z,44.70
2019-03-23T12:20:45.663Z,45.20
2019-03-23T12:21:45.666Z,44.60
2019-03-23T12:22:45.908Z,43.10
2019-03-23T12:23:45.645Z,38.10
2019-03-23T12:24:45.637Z,43.00
2019-03-23T12:25:45.619Z,44.40
2019-03-23T12:26:45.598Z,44.90
2019-03-23T12:27:45.609Z,45.50
2019-03-23T12:28:45.580Z,45.00
2019-03-23T12:29:45.587Z,45.00
2019-03-23T12:30:45.554Z,43.30
2019-03-23T12:31:45.554Z,44.60
2019-03-23T12:32:45.561Z,44.70
2019-03-23T12:33:45.524Z,42.70
2019-03-23T12:34:45.532Z,44.30
2019-03-23T12:35:45.508Z,44.70
2019-03-23T12:36:45.502Z,41.90
2019-03-23T12:37:45.487Z,44.10
2019-03-23T12:38:45.474Z,41.40
2019-03-23T12:39:45.472Z,45.70
2019-03-23T12:40:45.475Z,47.30
2019-03-23T12:41:45.427Z,46.10
2019-03-23T12:42:45.464Z,45.00
2019-03-23T12:43:45.411Z,45.20
2019-03-23T12:44:45.462Z,44.90
2019-03-23T12:45:45.403Z,46.60
2019-03-23T12:46:48.482Z,44.00
2019-03-23T12:47:45.406Z,44.70
2019-03-23T12:48:45.361Z,47.20
2019-03-23T12:49:45.357Z,41.20
2019-03-23T12:50:45.343Z,43.30
2019-03-23T12:51:45.331Z,43.50
2019-03-23T12:52:45.340Z,46.20